CQH1462 ZGCJ-ZUPS
Flight info
| Callsign | CQH1462 |
|---|---|
| Flight time | 0h 46m |
| Altitude | 13800 |
| Route | P512F P512 H165 P475 B330 QNX QNX81A |
| Aircraft | A320/M-SDE3FGHIRWY/LB1 |
Departure
| Time | 2026-05-05 11:01 |
|---|---|
| Airport | Huaihua Zhijiang Airport (ZGCJ) |
Arrival
| Time | 2026-05-05 11:48 |
|---|---|
| Airport | Liupanshui Yuezhao Airport (ZUPS) |
| Time | Latitude | Longitude | Altitude | Speed | Heading |
|---|---|---|---|---|---|
| 2026-05-05 10:49 | 27.44507 | 109.70238 | 841 ft | 0 kts | 308° |
| 2026-05-05 10:54 | 27.44502 | 109.70246 | 839 ft | 3 kts | 307° |
| 2026-05-05 10:54 | 27.44489 | 109.70264 | 838 ft | 3 kts | 307° |
| 2026-05-05 10:55 | 27.44477 | 109.70282 | 835 ft | 3 kts | 304° |
| 2026-05-05 10:55 | 27.44468 | 109.70298 | 844 ft | 2 kts | 295° |
| 2026-05-05 10:55 | 27.44464 | 109.70308 | 843 ft | 1 kts | 275° |
| 2026-05-05 10:55 | 27.44463 | 109.70317 | 849 ft | 1 kts | 258° |
| 2026-05-05 10:56 | 27.44465 | 109.70326 | 849 ft | 1 kts | 255° |
| 2026-05-05 10:56 | 27.44465 | 109.70328 | 848 ft | 0 kts | 255° |
| 2026-05-05 10:56 | 27.44463 | 109.70322 | 849 ft | 4 kts | 249° |
| 2026-05-05 10:56 | 27.44420 | 109.70313 | 849 ft | 11 kts | 159° |
| 2026-05-05 10:57 | 27.44362 | 109.70393 | 834 ft | 14 kts | 126° |
| 2026-05-05 10:57 | 27.44353 | 109.70492 | 842 ft | 14 kts | 41° |
| 2026-05-05 10:57 | 27.44435 | 109.70557 | 844 ft | 14 kts | 36° |
| 2026-05-05 10:57 | 27.44485 | 109.70599 | 847 ft | 13 kts | 37° |
| 2026-05-05 10:58 | 27.44579 | 109.70677 | 846 ft | 14 kts | 36° |
| 2026-05-05 10:58 | 27.44680 | 109.70763 | 844 ft | 20 kts | 36° |
| 2026-05-05 10:58 | 27.44795 | 109.70860 | 844 ft | 21 kts | 36° |
| 2026-05-05 10:58 | 27.44917 | 109.70967 | 844 ft | 23 kts | 37° |
| 2026-05-05 10:59 | 27.45003 | 109.71040 | 847 ft | 23 kts | 35° |
| 2026-05-05 10:59 | 27.45183 | 109.71184 | 844 ft | 25 kts | 36° |
| 2026-05-05 10:59 | 27.45327 | 109.71304 | 831 ft | 27 kts | 37° |
| 2026-05-05 10:59 | 27.45454 | 109.71402 | 833 ft | 11 kts | 16° |
| 2026-05-05 11:00 | 27.45502 | 109.71412 | 834 ft | 10 kts | 13° |
| 2026-05-05 11:00 | 27.45534 | 109.71458 | 835 ft | 7 kts | 102° |
| 2026-05-05 11:00 | 27.45499 | 109.71448 | 833 ft | 9 kts | 215° |
| 2026-05-05 11:00 | 27.45376 | 109.71346 | 841 ft | 60 kts | 217° |
| 2026-05-05 11:01 | 27.44856 | 109.70909 | 840 ft | 125 kts | 217° |
| 2026-05-05 11:01 | 27.44017 | 109.70232 | 1002 ft | 160 kts | 214° |
| 2026-05-05 11:01 | 27.43131 | 109.69493 | 1689 ft | 159 kts | 215° |
| 2026-05-05 11:01 | 27.42252 | 109.68749 | 2389 ft | 158 kts | 213° |
| 2026-05-05 11:02 | 27.41331 | 109.67975 | 2842 ft | 175 kts | 214° |
| 2026-05-05 11:02 | 27.40293 | 109.67105 | 3135 ft | 198 kts | 214° |
| 2026-05-05 11:02 | 27.39137 | 109.66137 | 3603 ft | 211 kts | 213° |
| 2026-05-05 11:02 | 27.37795 | 109.65552 | 4369 ft | 211 kts | 178° |
| 2026-05-05 11:03 | 27.36438 | 109.66123 | 5109 ft | 217 kts | 139° |
| 2026-05-05 11:03 | 27.35713 | 109.67622 | 5813 ft | 229 kts | 98° |
| 2026-05-05 11:03 | 27.36031 | 109.69382 | 6512 ft | 239 kts | 58° |
| 2026-05-05 11:03 | 27.37292 | 109.70580 | 7185 ft | 243 kts | 19° |
| 2026-05-05 11:04 | 27.38945 | 109.70971 | 7934 ft | 244 kts | 2° |
| 2026-05-05 11:04 | 27.40640 | 109.71028 | 8755 ft | 244 kts | 357° |
| 2026-05-05 11:04 | 27.42335 | 109.70990 | 9580 ft | 243 kts | 352° |
| 2026-05-05 11:04 | 27.43876 | 109.70389 | 10281 ft | 239 kts | 321° |
| 2026-05-05 11:05 | 27.44935 | 109.68954 | 10803 ft | 248 kts | 291° |
| 2026-05-05 11:05 | 27.45251 | 109.66975 | 11069 ft | 270 kts | 274° |
| 2026-05-05 11:05 | 27.45355 | 109.64772 | 11325 ft | 294 kts | 273° |
| 2026-05-05 11:05 | 27.45451 | 109.62384 | 11568 ft | 317 kts | 273° |
| 2026-05-05 11:06 | 27.45554 | 109.59817 | 11750 ft | 340 kts | 273° |
| 2026-05-05 11:06 | 27.45672 | 109.57071 | 11884 ft | 362 kts | 273° |
| 2026-05-05 11:06 | 27.45803 | 109.54164 | 12121 ft | 379 kts | 273° |
| 2026-05-05 11:06 | 27.45940 | 109.51174 | 12652 ft | 385 kts | 273° |
| 2026-05-05 11:07 | 27.46080 | 109.48152 | 13278 ft | 389 kts | 274° |
| 2026-05-05 11:07 | 27.46067 | 109.45096 | 13572 ft | 392 kts | 265° |
| 2026-05-05 11:07 | 27.45594 | 109.42046 | 13637 ft | 404 kts | 256° |
| 2026-05-05 11:07 | 27.44691 | 109.39012 | 13641 ft | 411 kts | 251° |
| 2026-05-05 11:08 | 27.43736 | 109.35969 | 13642 ft | 413 kts | 251° |
| 2026-05-05 11:08 | 27.42786 | 109.32919 | 13638 ft | 413 kts | 252° |
| 2026-05-05 11:08 | 27.41840 | 109.29864 | 13640 ft | 413 kts | 252° |
| 2026-05-05 11:08 | 27.40899 | 109.26807 | 13638 ft | 413 kts | 252° |
| 2026-05-05 11:09 | 27.39959 | 109.23750 | 13645 ft | 413 kts | 252° |
| 2026-05-05 11:09 | 27.39031 | 109.20738 | 13644 ft | 413 kts | 252° |
| 2026-05-05 11:09 | 27.38088 | 109.17686 | 13650 ft | 413 kts | 252° |
| 2026-05-05 11:09 | 27.37144 | 109.14634 | 13647 ft | 413 kts | 252° |
| 2026-05-05 11:10 | 27.36198 | 109.11583 | 13648 ft | 413 kts | 252° |
| 2026-05-05 11:10 | 27.35250 | 109.08534 | 13655 ft | 414 kts | 251° |
| 2026-05-05 11:10 | 27.34298 | 109.05481 | 13654 ft | 414 kts | 251° |
| 2026-05-05 11:10 | 27.33348 | 109.02427 | 13657 ft | 414 kts | 251° |
| 2026-05-05 11:11 | 27.32397 | 108.99374 | 13659 ft | 414 kts | 251° |
| 2026-05-05 11:11 | 27.31444 | 108.96322 | 13660 ft | 414 kts | 251° |
| 2026-05-05 11:11 | 27.30490 | 108.93269 | 13662 ft | 414 kts | 251° |
| 2026-05-05 11:11 | 27.29536 | 108.90214 | 13666 ft | 414 kts | 251° |
| 2026-05-05 11:12 | 27.28580 | 108.87158 | 13669 ft | 414 kts | 251° |
| 2026-05-05 11:12 | 27.27624 | 108.84105 | 13669 ft | 415 kts | 251° |
| 2026-05-05 11:12 | 27.26667 | 108.81049 | 13673 ft | 414 kts | 251° |
| 2026-05-05 11:12 | 27.25709 | 108.77993 | 13669 ft | 414 kts | 251° |
| 2026-05-05 11:13 | 27.24748 | 108.74938 | 13675 ft | 415 kts | 251° |
| 2026-05-05 11:13 | 27.23787 | 108.71884 | 13676 ft | 415 kts | 251° |
| 2026-05-05 11:13 | 27.22827 | 108.68829 | 13678 ft | 415 kts | 251° |
| 2026-05-05 11:13 | 27.21867 | 108.65773 | 13681 ft | 415 kts | 252° |
| 2026-05-05 11:14 | 27.20920 | 108.62757 | 13683 ft | 415 kts | 251° |
| 2026-05-05 11:14 | 27.19961 | 108.59704 | 13688 ft | 414 kts | 251° |
| 2026-05-05 11:14 | 27.19002 | 108.56653 | 13684 ft | 414 kts | 252° |
| 2026-05-05 11:14 | 27.18043 | 108.53604 | 13689 ft | 414 kts | 251° |
| 2026-05-05 11:15 | 27.17083 | 108.50560 | 13688 ft | 414 kts | 251° |
| 2026-05-05 11:15 | 27.16119 | 108.47521 | 13685 ft | 413 kts | 251° |
| 2026-05-05 11:15 | 27.15154 | 108.44480 | 13684 ft | 413 kts | 251° |
| 2026-05-05 11:15 | 27.14193 | 108.41442 | 13680 ft | 413 kts | 251° |
| 2026-05-05 11:16 | 27.13232 | 108.38403 | 13679 ft | 413 kts | 251° |
| 2026-05-05 11:16 | 27.12267 | 108.35366 | 13685 ft | 413 kts | 251° |
| 2026-05-05 11:16 | 27.11305 | 108.32331 | 13689 ft | 413 kts | 251° |
| 2026-05-05 11:16 | 27.10343 | 108.29296 | 13696 ft | 412 kts | 251° |
| 2026-05-05 11:17 | 27.09379 | 108.26264 | 13692 ft | 412 kts | 251° |
| 2026-05-05 11:17 | 27.08415 | 108.23238 | 13693 ft | 412 kts | 251° |
| 2026-05-05 11:17 | 27.07450 | 108.20212 | 13698 ft | 412 kts | 251° |
| 2026-05-05 11:17 | 27.06488 | 108.17190 | 13700 ft | 411 kts | 251° |
| 2026-05-05 11:18 | 27.05529 | 108.14172 | 13699 ft | 411 kts | 251° |
| 2026-05-05 11:18 | 27.04567 | 108.11156 | 13697 ft | 410 kts | 251° |
| 2026-05-05 11:18 | 27.03603 | 108.08143 | 13702 ft | 410 kts | 251° |
| 2026-05-05 11:18 | 27.02638 | 108.05134 | 13700 ft | 410 kts | 251° |
| 2026-05-05 11:19 | 27.01671 | 108.02122 | 13701 ft | 410 kts | 251° |
| 2026-05-05 11:19 | 27.00718 | 107.99155 | 13701 ft | 410 kts | 251° |
| 2026-05-05 11:19 | 26.99738 | 107.96105 | 13701 ft | 410 kts | 250° |
| 2026-05-05 11:19 | 26.98787 | 107.93139 | 13700 ft | 410 kts | 251° |
| 2026-05-05 11:20 | 26.97823 | 107.90132 | 13700 ft | 410 kts | 251° |
| 2026-05-05 11:20 | 26.96856 | 107.87124 | 13706 ft | 410 kts | 250° |
| 2026-05-05 11:20 | 26.95888 | 107.84117 | 13701 ft | 410 kts | 250° |
| 2026-05-05 11:20 | 26.94918 | 107.81112 | 13708 ft | 410 kts | 250° |
| 2026-05-05 11:21 | 26.93949 | 107.78108 | 13709 ft | 410 kts | 250° |
| 2026-05-05 11:21 | 26.92978 | 107.75105 | 13718 ft | 410 kts | 250° |
| 2026-05-05 11:21 | 26.92006 | 107.72106 | 13719 ft | 410 kts | 250° |
| 2026-05-05 11:21 | 26.91032 | 107.69104 | 13719 ft | 410 kts | 250° |
| 2026-05-05 11:22 | 26.90058 | 107.66103 | 13724 ft | 410 kts | 250° |
| 2026-05-05 11:22 | 26.89086 | 107.63100 | 13727 ft | 410 kts | 250° |
| 2026-05-05 11:22 | 26.88114 | 107.60096 | 13725 ft | 410 kts | 250° |
| 2026-05-05 11:22 | 26.87141 | 107.57091 | 13727 ft | 410 kts | 250° |
| 2026-05-05 11:23 | 26.86171 | 107.54087 | 13728 ft | 410 kts | 250° |
| 2026-05-05 11:23 | 26.85199 | 107.51087 | 13729 ft | 410 kts | 250° |
| 2026-05-05 11:23 | 26.84224 | 107.48087 | 13736 ft | 410 kts | 250° |
| 2026-05-05 11:23 | 26.83244 | 107.45089 | 13732 ft | 410 kts | 249° |
| 2026-05-05 11:24 | 26.82262 | 107.42090 | 13736 ft | 410 kts | 249° |
| 2026-05-05 11:24 | 26.81282 | 107.39094 | 13742 ft | 410 kts | 250° |
| 2026-05-05 11:24 | 26.80307 | 107.36102 | 13744 ft | 410 kts | 249° |
| 2026-05-05 11:24 | 26.79331 | 107.33104 | 13746 ft | 410 kts | 249° |
| 2026-05-05 11:25 | 26.78357 | 107.30110 | 13741 ft | 409 kts | 249° |
| 2026-05-05 11:25 | 26.77382 | 107.27116 | 13747 ft | 409 kts | 249° |
| 2026-05-05 11:25 | 26.76408 | 107.24126 | 13746 ft | 409 kts | 249° |
| 2026-05-05 11:25 | 26.75430 | 107.21136 | 13744 ft | 409 kts | 249° |
| 2026-05-05 11:26 | 26.74449 | 107.18143 | 13746 ft | 410 kts | 249° |
| 2026-05-05 11:26 | 26.73468 | 107.15152 | 13746 ft | 410 kts | 249° |
| 2026-05-05 11:26 | 26.72485 | 107.12158 | 13747 ft | 410 kts | 249° |
| 2026-05-05 11:26 | 26.71501 | 107.09164 | 13753 ft | 410 kts | 249° |
| 2026-05-05 11:27 | 26.70544 | 107.06256 | 13757 ft | 410 kts | 249° |
| 2026-05-05 11:27 | 26.69559 | 107.03260 | 13759 ft | 410 kts | 249° |
| 2026-05-05 11:27 | 26.68577 | 107.00265 | 13760 ft | 410 kts | 249° |
| 2026-05-05 11:27 | 26.67594 | 106.97271 | 13763 ft | 410 kts | 249° |
| 2026-05-05 11:28 | 26.66618 | 106.94314 | 13762 ft | 410 kts | 249° |
| 2026-05-05 11:28 | 26.65625 | 106.91323 | 13762 ft | 411 kts | 248° |
| 2026-05-05 11:28 | 26.64635 | 106.88333 | 13767 ft | 411 kts | 249° |
| 2026-05-05 11:28 | 26.63676 | 106.85323 | 13764 ft | 411 kts | 250° |
| 2026-05-05 11:29 | 26.62751 | 106.82302 | 13762 ft | 411 kts | 250° |
| 2026-05-05 11:29 | 26.61843 | 106.79279 | 13765 ft | 411 kts | 250° |
| 2026-05-05 11:29 | 26.60946 | 106.76245 | 13763 ft | 411 kts | 252° |
| 2026-05-05 11:29 | 26.60452 | 106.73102 | 13766 ft | 413 kts | 265° |
| 2026-05-05 11:30 | 26.60618 | 106.69895 | 13757 ft | 416 kts | 278° |
| 2026-05-05 11:30 | 26.61440 | 106.66789 | 13756 ft | 419 kts | 290° |
| 2026-05-05 11:30 | 26.62853 | 106.63932 | 13751 ft | 423 kts | 303° |
| 2026-05-05 11:30 | 26.64633 | 106.61309 | 13751 ft | 424 kts | 305° |
| 2026-05-05 11:31 | 26.66427 | 106.58691 | 13748 ft | 424 kts | 305° |
| 2026-05-05 11:31 | 26.68220 | 106.56073 | 13740 ft | 424 kts | 305° |
| 2026-05-05 11:31 | 26.70011 | 106.53454 | 13737 ft | 424 kts | 305° |
| 2026-05-05 11:31 | 26.71804 | 106.50828 | 13730 ft | 425 kts | 305° |
| 2026-05-05 11:32 | 26.73594 | 106.48204 | 13718 ft | 425 kts | 304° |
| 2026-05-05 11:32 | 26.75362 | 106.45610 | 13713 ft | 425 kts | 305° |
| 2026-05-05 11:32 | 26.77151 | 106.42980 | 13717 ft | 425 kts | 304° |
| 2026-05-05 11:32 | 26.78962 | 106.40311 | 13713 ft | 425 kts | 305° |
| 2026-05-05 11:33 | 26.80721 | 106.37713 | 13714 ft | 425 kts | 304° |
| 2026-05-05 11:33 | 26.82502 | 106.35082 | 13711 ft | 424 kts | 305° |
| 2026-05-05 11:33 | 26.84284 | 106.32450 | 13707 ft | 424 kts | 304° |
| 2026-05-05 11:33 | 26.86066 | 106.29818 | 13699 ft | 424 kts | 305° |
| 2026-05-05 11:34 | 26.87848 | 106.27186 | 13700 ft | 424 kts | 304° |
| 2026-05-05 11:34 | 26.89633 | 106.24552 | 13698 ft | 424 kts | 304° |
| 2026-05-05 11:34 | 26.91416 | 106.21918 | 13693 ft | 424 kts | 305° |
| 2026-05-05 11:34 | 26.93198 | 106.19285 | 13694 ft | 424 kts | 305° |
| 2026-05-05 11:35 | 26.94978 | 106.16648 | 13694 ft | 424 kts | 304° |
| 2026-05-05 11:35 | 26.96756 | 106.14010 | 13686 ft | 424 kts | 304° |
| 2026-05-05 11:35 | 26.98534 | 106.11373 | 13686 ft | 424 kts | 304° |
| 2026-05-05 11:35 | 27.00260 | 106.08699 | 13679 ft | 422 kts | 299° |
| 2026-05-05 11:36 | 27.01506 | 106.05745 | 13676 ft | 418 kts | 286° |
| 2026-05-05 11:36 | 27.02128 | 106.02584 | 13684 ft | 414 kts | 274° |
| 2026-05-05 11:36 | 27.02114 | 105.99374 | 13681 ft | 411 kts | 261° |
| 2026-05-05 11:36 | 27.01486 | 105.96265 | 13682 ft | 408 kts | 249° |
| 2026-05-05 11:37 | 27.00388 | 105.93341 | 13677 ft | 407 kts | 245° |
| 2026-05-05 11:37 | 26.99244 | 105.90436 | 13676 ft | 407 kts | 245° |
| 2026-05-05 11:37 | 26.98102 | 105.87535 | 13678 ft | 407 kts | 246° |
| 2026-05-05 11:37 | 26.96963 | 105.84630 | 13678 ft | 407 kts | 246° |
| 2026-05-05 11:38 | 26.95825 | 105.81727 | 13678 ft | 407 kts | 246° |
| 2026-05-05 11:38 | 26.94701 | 105.78864 | 13673 ft | 407 kts | 246° |
| 2026-05-05 11:38 | 26.93561 | 105.75966 | 13675 ft | 406 kts | 246° |
| 2026-05-05 11:38 | 26.92421 | 105.73075 | 13671 ft | 406 kts | 246° |
| 2026-05-05 11:39 | 26.91280 | 105.70180 | 13675 ft | 406 kts | 246° |
| 2026-05-05 11:39 | 26.90140 | 105.67292 | 13675 ft | 405 kts | 246° |
| 2026-05-05 11:39 | 26.88998 | 105.64406 | 13671 ft | 406 kts | 246° |
| 2026-05-05 11:39 | 26.87855 | 105.61517 | 13662 ft | 405 kts | 246° |
| 2026-05-05 11:40 | 26.86715 | 105.58633 | 13664 ft | 405 kts | 246° |
| 2026-05-05 11:40 | 26.85574 | 105.55745 | 13668 ft | 405 kts | 246° |
| 2026-05-05 11:40 | 26.84433 | 105.52862 | 13669 ft | 405 kts | 246° |
| 2026-05-05 11:40 | 26.83292 | 105.49977 | 13665 ft | 405 kts | 246° |
| 2026-05-05 11:41 | 26.82151 | 105.47094 | 13668 ft | 405 kts | 246° |
| 2026-05-05 11:41 | 26.81011 | 105.44213 | 13667 ft | 405 kts | 246° |
| 2026-05-05 11:41 | 26.79871 | 105.41339 | 13664 ft | 404 kts | 246° |
| 2026-05-05 11:41 | 26.78728 | 105.38467 | 13662 ft | 404 kts | 246° |
| 2026-05-05 11:42 | 26.77600 | 105.35637 | 13658 ft | 403 kts | 246° |
| 2026-05-05 11:42 | 26.76454 | 105.32778 | 13657 ft | 403 kts | 244° |
| 2026-05-05 11:42 | 26.75095 | 105.30062 | 13641 ft | 392 kts | 241° |
| 2026-05-05 11:42 | 26.74137 | 105.27246 | 13617 ft | 374 kts | 257° |
| 2026-05-05 11:43 | 26.73939 | 105.24471 | 13467 ft | 345 kts | 273° |
| 2026-05-05 11:43 | 26.74333 | 105.21936 | 13340 ft | 319 kts | 281° |
| 2026-05-05 11:43 | 26.74799 | 105.19639 | 13202 ft | 295 kts | 278° |
| 2026-05-05 11:43 | 26.74826 | 105.17433 | 12945 ft | 281 kts | 257° |
| 2026-05-05 11:44 | 26.74099 | 105.15451 | 12138 ft | 275 kts | 236° |
| 2026-05-05 11:44 | 26.72903 | 105.13792 | 11011 ft | 274 kts | 229° |
| 2026-05-05 11:44 | 26.71652 | 105.12200 | 9982 ft | 271 kts | 229° |
| 2026-05-05 11:44 | 26.70445 | 105.10605 | 9099 ft | 265 kts | 229° |
| 2026-05-05 11:45 | 26.69311 | 105.09083 | 8626 ft | 243 kts | 229° |
| 2026-05-05 11:45 | 26.68281 | 105.07704 | 8292 ft | 220 kts | 228° |
| 2026-05-05 11:45 | 26.67339 | 105.06446 | 8046 ft | 201 kts | 228° |
| 2026-05-05 11:45 | 26.66484 | 105.05304 | 7744 ft | 182 kts | 226° |
| 2026-05-05 11:46 | 26.65713 | 105.04275 | 7538 ft | 166 kts | 227° |
| 2026-05-05 11:46 | 26.65004 | 105.03329 | 7329 ft | 155 kts | 226° |
| 2026-05-05 11:46 | 26.64322 | 105.02421 | 7140 ft | 151 kts | 225° |
| 2026-05-05 11:46 | 26.63652 | 105.01529 | 6952 ft | 149 kts | 225° |
| 2026-05-05 11:47 | 26.62998 | 105.00656 | 6781 ft | 145 kts | 223° |
| 2026-05-05 11:47 | 26.62344 | 104.99786 | 6629 ft | 148 kts | 223° |
| 2026-05-05 11:47 | 26.61679 | 104.98890 | 6435 ft | 150 kts | 225° |
| 2026-05-05 11:47 | 26.61094 | 104.98136 | 6422 ft | 93 kts | 230° |
| 2026-05-05 11:48 | 26.60745 | 104.97620 | 6441 ft | 14 kts | 286° |
| 2026-05-05 11:48 | 26.60769 | 104.97527 | 6437 ft | 12 kts | 262° |
| 2026-05-05 11:48 | 26.60758 | 104.97450 | 6434 ft | 8 kts | 258° |
| 2026-05-05 11:49 | 26.60745 | 104.97407 | 6436 ft | 4 kts | 238° |
| 2026-05-05 11:49 | 26.60717 | 104.97372 | 6445 ft | 10 kts | 229° |
| 2026-05-05 11:49 | 26.60646 | 104.97280 | 6440 ft | 20 kts | 231° |
| 2026-05-05 11:49 | 26.60558 | 104.97152 | 6435 ft | 21 kts | 238° |
| 2026-05-05 11:50 | 26.60562 | 104.97082 | 6437 ft | 9 kts | 314° |
| 2026-05-05 11:50 | 26.60589 | 104.97057 | 6442 ft | 0 kts | 320° |